Time;durP1;ratioP1;P1;durP2;ratioP2;P2;SDS_P1;SDS_P2;PMS_P1;PMS_P2;Temp;Humidity;BMP_temperature;BMP_pressure;BME280_temperature;BME280_humidity;BME280_pressure;Samples;Min_cycle;Max_cycle;Signal;HPM_P1;HPM_P2
2020/12/29 00:02:26;;;;;;;2.60;1.80;;;6.00;99.90;;;;;;4945815;29;20196;-95
2020/12/29 00:04:58;;;;;;;3.70;1.97;;;6.00;99.90;;;;;;4948311;29;20613;-96
2020/12/29 00:07:30;;;;;;;2.63;1.90;;;5.90;99.90;;;;;;4949541;29;20202;-96
2020/12/29 00:10:02;;;;;;;8.83;2.83;;;5.90;99.90;;;;;;4946543;29;20208;-95
2020/12/29 00:12:33;;;;;;;3.37;2.03;;;5.90;99.90;;;;;;4950609;29;20744;-96
2020/12/29 00:15:04;;;;;;;3.60;1.70;;;5.80;99.90;;;;;;4945615;29;20295;-96
2020/12/29 00:17:35;;;;;;;3.33;1.90;;;5.80;99.90;;;;;;4945345;29;20240;-96
2020/12/29 00:20:06;;;;;;;3.20;2.20;;;5.80;99.90;;;;;;4946597;29;20288;-95
2020/12/29 00:22:37;;;;;;;2.40;1.93;;;5.90;99.90;;;;;;4946645;28;20212;-95
2020/12/29 00:25:10;;;;;;;2.30;1.90;;;5.90;99.90;;;;;;4944526;29;20209;-95
2020/12/29 00:27:41;;;;;;;3.93;2.50;;;5.80;99.90;;;;;;4946066;28;20217;-93
2020/12/29 00:30:11;;;;;;;3.77;2.27;;;5.80;99.90;;;;;;4946284;29;20635;-93
2020/12/29 00:32:42;;;;;;;2.23;1.90;;;5.70;99.90;;;;;;4946805;29;20212;-93
2020/12/29 00:35:13;;;;;;;3.23;2.40;;;5.70;99.90;;;;;;4946294;29;20215;-94
2020/12/29 00:37:44;;;;;;;3.83;2.40;;;5.70;99.90;;;;;;4946124;28;20235;-93
2020/12/29 00:40:15;;;;;;;2.83;2.33;;;5.70;99.90;;;;;;4947184;29;20208;-94
2020/12/29 00:42:46;;;;;;;2.47;2.20;;;5.70;99.90;;;;;;4946300;29;20205;-96
2020/12/29 00:45:17;;;;;;;2.17;1.90;;;5.60;99.90;;;;;;4946467;29;20604;-95
2020/12/29 00:47:48;;;;;;;2.37;2.17;;;5.60;99.90;;;;;;4945692;29;20235;-93
2020/12/29 00:50:18;;;;;;;2.03;1.80;;;5.50;99.90;;;;;;4945440;28;20611;-93
2020/12/29 00:52:49;;;;;;;2.80;1.80;;;5.40;99.90;;;;;;4946061;29;20267;-94
2020/12/29 00:55:21;;;;;;;3.23;1.97;;;5.30;99.90;;;;;;4946467;29;20314;-93
2020/12/29 00:57:51;;;;;;;3.10;1.80;;;5.30;99.90;;;;;;4945784;29;20547;-93
2020/12/29 01:00:22;;;;;;;1.80;1.47;;;5.20;99.90;;;;;;4936246;29;20263;-93
2020/12/29 01:02:53;;;;;;;1.70;1.60;;;5.10;99.90;;;;;;4947007;29;20702;-94
2020/12/29 01:05:24;;;;;;;2.43;1.70;;;5.00;99.90;;;;;;4946772;28;20439;-96
2020/12/29 01:07:55;;;;;;;3.07;2.10;;;5.00;99.90;;;;;;4929342;29;20304;-95
2020/12/29 01:10:28;;;;;;;3.07;2.37;;;4.90;99.90;;;;;;4928242;29;20257;-95
2020/12/29 01:12:59;;;;;;;2.53;2.17;;;4.90;99.90;;;;;;4941701;29;20204;-95
2020/12/29 01:15:30;;;;;;;3.10;2.67;;;4.90;99.90;;;;;;4948401;29;20205;-95
2020/12/29 01:18:02;;;;;;;3.13;2.40;;;4.80;99.90;;;;;;4946453;29;20236;-95
2020/12/29 01:20:34;;;;;;;3.90;2.10;;;4.70;99.90;;;;;;4949864;28;20248;-95
2020/12/29 01:23:05;;;;;;;3.73;2.17;;;4.70;99.90;;;;;;4946705;29;20204;-96
2020/12/29 01:25:37;;;;;;;2.40;1.87;;;4.60;99.90;;;;;;4946136;29;20204;-95
2020/12/29 01:28:08;;;;;;;3.00;1.93;;;4.50;99.90;;;;;;4946250;29;20256;-93
2020/12/29 01:30:40;;;;;;;3.50;1.77;;;4.40;99.90;;;;;;4946593;28;20209;-93
2020/12/29 01:33:11;;;;;;;3.90;2.10;;;4.40;99.90;;;;;;4946180;29;20211;-90
2020/12/29 01:35:42;;;;;;;3.57;2.00;;;4.30;99.90;;;;;;4945505;29;20216;-93
2020/12/29 01:38:13;;;;;;;1.77;1.67;;;4.30;99.90;;;;;;4944298;29;20746;-93
2020/12/29 01:40:47;;;;;;;2.43;2.07;;;4.20;99.90;;;;;;4941331;28;20220;-93
2020/12/29 01:43:17;;;;;;;4.33;2.00;;;4.10;99.90;;;;;;4944656;29;20323;-94
2020/12/29 01:45:48;;;;;;;3.30;2.57;;;4.10;99.90;;;;;;4944849;29;20216;-93
2020/12/29 01:48:19;;;;;;;4.13;3.00;;;4.10;99.90;;;;;;4946314;28;20260;-93
2020/12/29 01:50:50;;;;;;;4.17;2.53;;;4.10;99.90;;;;;;4943904;29;20651;-94
2020/12/29 01:53:20;;;;;;;3.27;2.30;;;4.10;99.90;;;;;;4929859;29;20233;-93
2020/12/29 01:55:53;;;;;;;3.70;2.73;;;4.00;99.90;;;;;;4934525;29;20228;-93
2020/12/29 01:58:25;;;;;;;3.43;2.67;;;4.00;99.90;;;;;;4958785;29;20228;-94
2020/12/29 02:00:56;;;;;;;3.97;3.00;;;3.90;99.90;;;;;;4942629;28;20271;-95
2020/12/29 02:03:26;;;;;;;4.17;2.60;;;3.90;99.90;;;;;;4926922;29;20316;-96
2020/12/29 02:05:58;;;;;;;3.03;2.60;;;3.90;99.90;;;;;;4928277;29;20224;-96
2020/12/29 02:08:30;;;;;;;3.90;2.87;;;3.80;99.90;;;;;;4926706;29;20597;-96
2020/12/29 02:11:03;;;;;;;3.47;2.70;;;3.80;99.90;;;;;;4944569;29;20215;-95
2020/12/29 02:13:43;;;;;;;3.53;2.53;;;3.80;99.90;;;;;;4963539;28;20279;-96
2020/12/29 02:16:14;;;;;;;3.10;2.63;;;3.70;99.90;;;;;;4966991;28;20278;-95
2020/12/29 02:18:45;;;;;;;3.40;3.10;;;3.70;99.90;;;;;;4956800;28;20236;-96
2020/12/29 02:21:15;;;;;;;4.40;3.60;;;3.70;99.90;;;;;;4946194;29;20303;-96
2020/12/29 02:23:48;;;;;;;5.73;4.50;;;3.60;99.90;;;;;;4944869;29;20220;-96
2020/12/29 02:26:31;;;;;;;11.77;9.37;;;3.60;99.90;;;;;;4944407;29;20635;-96
2020/12/29 02:29:04;;;;;;;15.20;12.60;;;3.50;99.90;;;;;;4945903;29;20247;-94
2020/12/29 02:31:34;;;;;;;10.00;6.70;;;3.40;99.90;;;;;;4943843;29;20802;-93
2020/12/29 02:34:04;;;;;;;6.63;5.43;;;3.40;99.90;;;;;;4946256;29;20236;-93
2020/12/29 02:36:34;;;;;;;9.27;6.53;;;3.40;99.90;;;;;;4944911;29;20208;-93
2020/12/29 02:39:06;;;;;;;8.23;5.97;;;3.30;99.90;;;;;;4943772;29;20244;-93
2020/12/29 02:41:36;;;;;;;5.50;4.30;;;3.40;99.90;;;;;;4942291;29;20306;-92
2020/12/29 02:44:07;;;;;;;5.43;3.63;;;3.40;99.90;;;;;;4943013;29;20220;-94
2020/12/29 02:46:39;;;;;;;4.90;3.47;;;3.30;99.90;;;;;;4944014;29;20224;-93
2020/12/29 02:49:09;;;;;;;6.30;4.23;;;3.30;99.90;;;;;;4944151;29;20226;-93
2020/12/29 02:51:40;;;;;;;6.43;5.70;;;3.30;99.90;;;;;;4943924;29;20215;-92
2020/12/29 02:54:12;;;;;;;7.37;6.10;;;3.20;99.90;;;;;;4934565;29;20217;-91
2020/12/29 02:56:44;;;;;;;8.67;7.27;;;3.20;99.90;;;;;;4924469;29;20219;-93
2020/12/29 02:59:14;;;;;;;9.40;6.97;;;3.10;99.90;;;;;;4943031;29;20243;-93
2020/12/29 03:01:45;;;;;;;6.90;6.20;;;3.10;99.90;;;;;;4942661;29;20215;-92
2020/12/29 03:04:16;;;;;;;7.77;6.90;;;3.10;99.90;;;;;;4942774;29;20217;-95
2020/12/29 03:06:47;;;;;;;10.27;7.50;;;3.10;99.90;;;;;;4954319;29;20203;-95
2020/12/29 03:09:19;;;;;;;8.67;7.70;;;3.10;99.90;;;;;;4963007;28;20530;-96
2020/12/29 03:11:50;;;;;;;8.90;7.27;;;3.10;99.90;;;;;;4938071;29;20662;-95
2020/12/29 03:14:20;;;;;;;11.17;8.80;;;3.10;99.90;;;;;;4938370;29;20212;-95
2020/12/29 03:16:51;;;;;;;10.03;8.90;;;3.10;99.90;;;;;;4919892;29;20213;-95
2020/12/29 03:19:25;;;;;;;10.43;8.60;;;3.20;99.90;;;;;;4918154;29;20252;-95
2020/12/29 03:21:55;;;;;;;10.30;7.67;;;3.20;99.90;;;;;;4920195;29;20738;-95
2020/12/29 03:24:27;;;;;;;9.23;8.23;;;3.30;99.90;;;;;;4922232;29;20229;-95
2020/12/29 03:26:58;;;;;;;9.13;7.57;;;3.40;99.90;;;;;;4938113;29;20231;-95
2020/12/29 03:29:29;;;;;;;8.50;7.53;;;3.50;99.90;;;;;;4936177;29;20880;-95
2020/12/29 03:32:01;;;;;;;8.77;7.13;;;3.50;99.90;;;;;;4939342;29;20636;-94
2020/12/29 03:34:37;;;;;;;7.80;6.63;;;3.60;99.90;;;;;;4942994;29;20344;-93
2020/12/29 03:37:08;;;;;;;8.33;6.40;;;3.70;99.90;;;;;;4932709;29;20205;-93
2020/12/29 03:39:43;;;;;;;9.93;6.77;;;3.70;99.90;;;;;;4941160;29;20298;-92
2020/12/29 03:42:14;;;;;;;10.63;7.53;;;3.80;99.90;;;;;;4944804;28;20241;-92
2020/12/29 03:44:45;;;;;;;10.30;8.43;;;3.90;99.90;;;;;;4946851;29;20216;-92
2020/12/29 03:47:15;;;;;;;8.70;7.80;;;4.00;99.90;;;;;;4949698;28;20798;-92
2020/12/29 03:49:47;;;;;;;10.27;8.17;;;4.00;99.90;;;;;;4966097;28;20537;-92
2020/12/29 03:52:17;;;;;;;10.20;7.73;;;4.10;99.90;;;;;;4952992;29;20304;-93
2020/12/29 03:54:50;;;;;;;9.27;6.77;;;4.10;99.90;;;;;;4949613;29;20271;-92
2020/12/29 03:57:20;;;;;;;9.37;7.23;;;4.20;99.90;;;;;;4959720;28;20224;-93
2020/12/29 03:59:51;;;;;;;11.33;8.40;;;4.20;99.90;;;;;;4968399;28;20203;-92
2020/12/29 04:02:21;;;;;;;8.97;6.90;;;4.30;99.90;;;;;;4958491;28;20196;-96
2020/12/29 04:04:52;;;;;;;9.83;7.40;;;4.30;99.90;;;;;;4948795;29;20201;-96
2020/12/29 04:07:26;;;;;;;7.17;5.97;;;4.30;99.90;;;;;;4949143;29;20261;-96
2020/12/29 04:09:59;;;;;;;6.90;6.03;;;4.20;99.90;;;;;;4949188;29;20196;-96
2020/12/29 04:12:31;;;;;;;8.07;6.20;;;4.30;99.90;;;;;;4948992;29;20262;-94
2020/12/29 04:15:02;;;;;;;7.80;6.17;;;4.20;99.90;;;;;;4950064;29;20208;-95
2020/12/29 04:17:36;;;;;;;8.17;6.10;;;4.20;99.90;;;;;;4948809;28;20338;-95
2020/12/29 04:20:09;;;;;;;10.30;7.27;;;4.10;99.90;;;;;;4950207;29;20216;-94
2020/12/29 04:22:41;;;;;;;9.07;7.30;;;4.10;99.90;;;;;;4949341;29;20223;-95
2020/12/29 04:25:13;;;;;;;7.93;6.87;;;4.00;99.90;;;;;;4953399;29;20200;-95
2020/12/29 04:27:44;;;;;;;9.03;6.60;;;3.90;99.90;;;;;;4951170;28;20216;-94
2020/12/29 04:30:16;;;;;;;7.60;6.77;;;3.90;99.90;;;;;;4950502;29;20212;-91
2020/12/29 04:32:49;;;;;;;7.73;6.43;;;3.70;99.90;;;;;;4943457;29;20196;-93
2020/12/29 04:35:19;;;;;;;8.00;6.47;;;3.60;99.90;;;;;;4952020;29;20227;-92
2020/12/29 04:37:50;;;;;;;7.33;6.40;;;3.60;99.90;;;;;;4954299;29;20243;-93
2020/12/29 04:40:22;;;;;;;7.13;6.20;;;3.50;99.90;;;;;;4954761;28;20205;-93
2020/12/29 04:42:55;;;;;;;10.30;6.63;;;3.50;99.90;;;;;;4962250;28;20210;-93
2020/12/29 04:45:26;;;;;;;9.10;6.40;;;3.40;99.90;;;;;;4958532;28;20228;-96
2020/12/29 04:56:02;;;;;;;9.40;7.53;;;3.30;99.90;;;;;;5005687;23;20260;-93
2020/12/29 04:58:34;;;;;;;9.50;8.17;;;3.30;99.90;;;;;;4956978;29;20306;-93
2020/12/29 05:01:12;;;;;;;10.20;7.40;;;3.30;99.90;;;;;;4955067;28;20213;-96
2020/12/29 05:04:03;;;;;;;9.80;7.80;;;3.40;99.90;;;;;;4956419;28;20192;-95
2020/12/29 05:06:39;;;;;;;9.73;8.30;;;3.50;99.90;;;;;;4956013;29;20212;-96
2020/12/29 05:09:28;;;;;;;11.17;8.40;;;3.50;99.90;;;;;;4958671;29;20252;-96
2020/12/29 05:12:04;;;;;;;10.93;8.77;;;3.70;99.90;;;;;;5187895;23;20364;-94
2020/12/29 05:14:35;;;;;;;10.50;9.23;;;3.50;99.90;;;;;;4990277;28;20233;-95
2020/12/29 05:17:05;;;;;;;9.17;7.53;;;3.60;99.90;;;;;;4974412;28;20666;-96
2020/12/29 05:19:38;;;;;;;17.47;13.10;;;3.70;99.90;;;;;;4973003;28;20235;-96
2020/12/29 05:22:19;;;;;;;19.80;12.83;;;3.70;99.90;;;;;;4976069;28;20218;-96
2020/12/29 05:25:05;;;;;;;13.23;9.47;;;3.80;99.90;;;;;;4963315;28;20204;-96
2020/12/29 05:27:50;;;;;;;14.40;10.87;;;3.80;99.90;;;;;;4977515;28;20406;-95
2020/12/29 05:30:28;;;;;;;13.00;9.63;;;3.90;99.90;;;;;;4982302;28;20267;-96
2020/12/29 05:33:00;;;;;;;17.53;12.80;;;3.90;99.90;;;;;;4974232;28;20195;-96
2020/12/29 05:35:34;;;;;;;17.20;13.73;;;3.90;99.90;;;;;;4976527;28;20200;-96
2020/12/29 05:44:28;;;;;;;12.27;9.07;;;4.10;99.90;;;;;;5136335;23;20283;-96
2020/12/29 05:47:08;;;;;;;8.83;7.57;;;4.10;99.90;;;;;;4971042;28;20196;-96
2020/12/29 05:49:41;;;;;;;9.53;8.43;;;4.10;99.90;;;;;;4973956;28;20334;-96
2020/12/29 05:57:33;;;;;;;10.50;8.03;;;4.20;99.90;;;;;;5017401;23;20234;-96
2020/12/29 06:08:21;;;;;;;8.00;7.20;;;4.30;99.90;;;;;;4976098;28;20221;-96
2020/12/29 06:11:00;;;;;;;9.20;7.17;;;4.30;99.90;;;;;;4969834;28;20192;-96
2020/12/29 06:57:00;;;;;;;8.87;6.03;;;4.50;99.90;;;;;;5249850;23;20247;-96
2020/12/29 06:59:50;;;;;;;8.70;6.27;;;4.50;99.90;;;;;;4973721;28;20243;-96
2020/12/29 07:21:36;;;;;;;5.17;3.80;;;4.40;99.90;;;;;;5314574;23;20358;-96
2020/12/29 07:24:11;;;;;;;4.03;3.50;;;4.30;99.90;;;;;;4960631;28;20228;-96
2020/12/29 07:26:57;;;;;;;5.43;4.10;;;4.30;99.90;;;;;;4954589;28;20235;-96
2020/12/29 07:29:32;;;;;;;5.63;4.10;;;4.30;99.90;;;;;;4951915;28;20267;-96
2020/12/29 07:32:12;;;;;;;8.10;4.43;;;4.30;99.90;;;;;;4953082;28;20211;-96
2020/12/29 07:34:51;;;;;;;8.13;4.20;;;4.30;99.90;;;;;;4954024;29;20211;-96
2020/12/29 08:01:52;;;;;;;4.60;3.60;;;4.10;99.90;;;;;;5491403;23;20302;-96
2020/12/29 08:04:35;;;;;;;6.03;3.50;;;4.00;99.90;;;;;;4950617;29;20236;-96
2020/12/29 08:07:10;;;;;;;3.97;3.23;;;4.00;99.90;;;;;;4952062;29;20214;-96
2020/12/29 08:09:52;;;;;;;4.60;2.93;;;3.90;99.90;;;;;;4954150;29;20326;-96
2020/12/29 08:12:33;;;;;;;4.97;3.17;;;4.00;99.90;;;;;;4955436;28;20201;-96
2020/12/29 08:25:51;;;;;;;4.43;2.97;;;4.00;99.90;;;;;;5075946;23;20242;-96
2020/12/29 08:28:28;;;;;;;3.93;2.60;;;3.90;99.90;;;;;;4972194;29;20250;-96
2020/12/29 08:52:39;;;;;;;3.10;2.40;;;3.90;99.90;;;;;;5571585;23;20304;-96
2020/12/29 08:55:28;;;;;;;3.27;2.30;;;3.80;99.90;;;;;;4978256;28;20206;-96
2020/12/29 09:03:33;;;;;;;3.67;2.50;;;3.90;99.90;;;;;;5262477;23;20251;-96
2020/12/29 09:06:25;;;;;;;3.77;2.57;;;3.80;99.90;;;;;;4966140;28;20208;-96
2020/12/29 09:12:25;;;;;;;3.20;2.63;;;3.80;99.90;;;;;;4967571;28;20222;-96
2020/12/29 09:20:26;;;;;;;2.70;1.90;;;3.80;99.90;;;;;;5440100;23;20240;-96
2020/12/29 09:23:03;;;;;;;2.83;1.67;;;3.80;99.90;;;;;;4940433;29;20213;-96
2020/12/29 09:36:29;;;;;;;1.93;1.73;;;3.80;99.90;;;;;;5371939;23;20301;-96
2020/12/29 09:39:06;;;;;;;2.63;2.43;;;3.70;99.90;;;;;;4973038;28;20219;-96
2020/12/29 09:41:42;;;;;;;1.97;1.50;;;3.70;99.90;;;;;;4961404;28;20323;-96
2020/12/29 09:54:57;;;;;;;2.83;1.80;;;3.50;99.90;;;;;;5425633;23;20307;-96
2020/12/29 10:00:16;;;;;;;2.97;1.63;;;3.50;99.90;;;;;;4989870;23;20243;-96
2020/12/29 10:03:03;;;;;;;1.97;1.50;;;3.50;99.90;;;;;;4934901;29;20193;-96
2020/12/29 10:05:45;;;;;;;4.27;1.20;;;3.50;99.90;;;;;;4934095;29;20251;-96
2020/12/29 10:08:17;;;;;;;1.90;1.40;;;3.50;99.90;;;;;;4926408;29;20216;-96
2020/12/29 10:11:05;;;;;;;2.23;1.47;;;3.50;99.90;;;;;;4932287;29;20296;-96
2020/12/29 10:13:43;;;;;;;2.17;1.70;;;3.40;99.90;;;;;;4934083;29;20209;-96
2020/12/29 10:16:15;;;;;;;2.10;1.37;;;3.50;99.90;;;;;;4930462;29;20192;-96
2020/12/29 10:18:49;;;;;;;2.40;1.40;;;3.40;99.90;;;;;;4934529;29;20225;-96
2020/12/29 10:21:21;;;;;;;2.07;1.20;;;3.40;99.90;;;;;;4939400;29;20212;-96
2020/12/29 10:24:03;;;;;;;1.87;1.50;;;3.40;99.90;;;;;;4927549;29;20197;-96
2020/12/29 10:26:36;;;;;;;4.10;1.60;;;3.30;99.90;;;;;;4937767;29;20210;-94
2020/12/29 10:29:25;;;;;;;2.40;1.50;;;3.20;99.90;;;;;;4938740;28;20215;-96
2020/12/29 10:34:39;;;;;;;1.40;1.30;;;3.20;99.90;;;;;;5098104;23;20278;-96
2020/12/29 10:37:12;;;;;;;2.50;1.80;;;3.20;99.90;;;;;;4976206;28;20271;-96
2020/12/29 10:39:48;;;;;;;3.43;1.57;;;3.20;99.90;;;;;;4973033;28;20215;-96
2020/12/29 10:42:21;;;;;;;1.90;1.50;;;3.10;99.90;;;;;;4978425;28;20188;-96
2020/12/29 10:44:57;;;;;;;2.03;1.63;;;3.10;99.90;;;;;;4977258;28;20207;-96
2020/12/29 10:50:05;;;;;;;2.87;1.50;;;3.20;99.90;;;;;;5261777;23;20308;-96
2020/12/29 10:52:43;;;;;;;2.33;1.80;;;3.10;99.90;;;;;;4958619;29;20267;-96
2020/12/29 10:55:16;;;;;;;2.17;1.73;;;3.00;99.90;;;;;;4958711;28;20191;-96
2020/12/29 11:00:33;;;;;;;2.57;1.70;;;2.90;99.90;;;;;;5577419;23;20234;-96
2020/12/29 11:03:05;;;;;;;7.37;1.50;;;2.80;99.90;;;;;;4976205;28;20188;-96
2020/12/29 11:05:38;;;;;;;1.53;1.30;;;2.70;99.90;;;;;;4975236;28;20274;-96
2020/12/29 11:08:15;;;;;;;3.83;1.83;;;2.70;99.90;;;;;;4974916;28;20188;-94
2020/12/29 11:13:30;;;;;;;2.73;1.70;;;2.50;99.90;;;;;;5065032;23;20235;-96
2020/12/29 11:31:40;;;;;;;2.30;2.07;;;2.00;99.90;;;;;;5005484;23;20251;-96
2020/12/29 11:34:15;;;;;;;3.20;2.30;;;1.90;99.90;;;;;;4955373;29;20277;-96
2020/12/29 11:37:04;;;;;;;4.30;2.53;;;1.80;99.90;;;;;;4957159;28;20195;-96
2020/12/29 11:39:56;;;;;;;3.67;2.20;;;1.70;99.90;;;;;;4956492;29;20228;-96
2020/12/29 11:42:41;;;;;;;3.53;2.30;;;1.60;99.90;;;;;;4955381;29;20207;-96
2020/12/29 11:45:18;;;;;;;2.73;2.20;;;1.60;99.90;;;;;;4952538;29;20202;-96
2020/12/29 11:58:42;;;;;;;3.60;2.70;;;1.30;99.90;;;;;;5777213;23;20270;-96
2020/12/29 12:01:16;;;;;;;3.70;2.50;;;1.10;99.90;;;;;;4977582;28;20210;-96
2020/12/29 12:03:55;;;;;;;4.50;2.50;;;1.10;99.90;;;;;;4976415;28;20709;-96
2020/12/29 12:09:05;;;;;;;3.63;2.13;;;1.10;99.90;;;;;;5295716;23;20308;-96
2020/12/29 12:11:36;;;;;;;5.07;2.30;;;1.10;99.90;;;;;;4960178;29;20192;-96
2020/12/29 12:14:09;;;;;;;4.60;2.37;;;1.10;99.90;;;;;;4961955;29;20202;-96
2020/12/29 12:16:46;;;;;;;2.63;2.00;;;1.00;99.90;;;;;;4962849;28;20184;-96
2020/12/29 12:33:27;;;;;;;3.33;2.37;;;1.00;99.90;;;;;;4977774;28;20205;-96
2020/12/29 12:36:17;;;;;;;3.20;2.20;;;1.00;99.90;;;;;;4977356;28;20223;-96
2020/12/29 12:38:56;;;;;;;4.13;2.20;;;1.00;99.90;;;;;;4975831;28;20252;-96
2020/12/29 12:41:35;;;;;;;4.27;1.90;;;1.00;99.90;;;;;;4980238;28;20230;-96
2020/12/29 12:44:20;;;;;;;2.37;1.93;;;1.00;99.90;;;;;;4990168;28;20206;-96
2020/12/29 12:47:25;;;;;;;2.10;1.70;;;1.10;99.90;;;;;;4977130;28;20212;-96
2020/12/29 12:50:11;;;;;;;4.27;1.90;;;1.00;99.90;;;;;;4962633;28;20208;-96
2020/12/29 13:00:53;;;;;;;4.80;2.10;;;1.10;99.90;;;;;;5100524;23;20246;-96
2020/12/29 13:03:42;;;;;;;2.03;1.70;;;1.10;99.90;;;;;;4963372;28;20272;-96
2020/12/29 13:06:22;;;;;;;2.13;1.90;;;1.10;99.90;;;;;;5119118;23;20235;-96
2020/12/29 13:08:59;;;;;;;2.30;2.07;;;1.10;99.90;;;;;;4975619;28;20309;-96
2020/12/29 13:14:37;;;;;;;2.53;2.00;;;1.10;99.90;;;;;;4971465;28;20239;-96
2020/12/29 13:17:13;;;;;;;3.10;2.20;;;1.20;99.90;;;;;;4975719;28;20267;-96
2020/12/29 13:19:52;;;;;;;3.10;1.80;;;1.30;99.90;;;;;;4955956;29;20243;-96
2020/12/29 13:22:39;;;;;;;3.00;2.10;;;1.40;99.90;;;;;;4973171;28;20235;-96
2020/12/29 13:25:12;;;;;;;4.37;2.30;;;1.50;99.90;;;;;;4975421;28;20307;-96
2020/12/29 13:27:44;;;;;;;2.97;2.23;;;1.50;99.90;;;;;;4975119;28;20209;-96
2020/12/29 13:30:17;;;;;;;3.00;2.17;;;1.50;99.90;;;;;;4971241;28;20287;-96
2020/12/29 13:32:51;;;;;;;2.73;2.10;;;1.60;99.90;;;;;;4973282;28;20206;-96
2020/12/29 13:35:33;;;;;;;3.53;2.30;;;1.70;99.90;;;;;;4955438;29;20210;-96
2020/12/29 13:38:16;;;;;;;2.77;1.80;;;1.80;99.90;;;;;;4971683;28;20220;-96
2020/12/29 13:40:55;;;;;;;2.90;1.80;;;1.80;99.90;;;;;;4973960;28;20210;-96
2020/12/29 13:43:27;;;;;;;2.20;2.00;;;1.90;99.90;;;;;;4975457;28;20203;-96
2020/12/29 13:46:07;;;;;;;3.27;2.13;;;1.90;99.90;;;;;;4975719;28;20183;-96
2020/12/29 13:48:43;;;;;;;3.27;2.30;;;2.00;99.90;;;;;;4970298;28;20215;-95
2020/12/29 13:54:06;;;;;;;2.60;2.00;;;2.00;99.90;;;;;;5062978;23;20288;-96
2020/12/29 13:56:38;;;;;;;4.73;2.10;;;2.00;99.90;;;;;;4973284;28;20251;-96
2020/12/29 13:59:11;;;;;;;2.50;2.20;;;2.00;99.90;;;;;;4972347;28;20223;-96
2020/12/29 14:01:49;;;;;;;3.87;2.40;;;2.00;99.90;;;;;;4953096;29;20208;-96
2020/12/29 14:04:23;;;;;;;2.77;2.00;;;2.00;99.90;;;;;;4969530;29;20197;-96
2020/12/29 14:07:00;;;;;;;3.80;2.50;;;2.10;99.90;;;;;;4964230;29;20267;-96
2020/12/29 14:09:39;;;;;;;4.60;2.67;;;2.10;99.90;;;;;;4972334;28;20202;-96
2020/12/29 14:12:14;;;;;;;3.03;2.60;;;2.10;99.90;;;;;;4971152;28;20222;-96
2020/12/29 14:14:45;;;;;;;3.07;2.50;;;2.10;99.90;;;;;;4968613;28;20204;-96
2020/12/29 14:17:19;;;;;;;3.47;2.53;;;2.20;99.90;;;;;;4965841;28;20206;-96
2020/12/29 14:19:53;;;;;;;3.40;3.10;;;2.10;99.90;;;;;;4970010;28;20253;-96
2020/12/29 14:22:31;;;;;;;4.37;2.57;;;2.20;99.90;;;;;;4968692;28;20218;-96
2020/12/29 14:25:16;;;;;;;3.43;2.57;;;2.10;99.90;;;;;;4967282;29;20248;-96
2020/12/29 14:27:49;;;;;;;3.83;2.70;;;2.10;99.90;;;;;;4970796;28;20221;-96
2020/12/29 14:30:23;;;;;;;3.23;2.33;;;2.20;99.90;;;;;;4970631;28;20202;-96
2020/12/29 14:33:02;;;;;;;3.97;2.80;;;2.20;99.90;;;;;;4970051;28;20215;-96
2020/12/29 14:35:36;;;;;;;3.33;2.57;;;2.20;99.90;;;;;;4970327;28;20212;-96
2020/12/29 14:38:11;;;;;;;3.03;2.73;;;2.20;99.90;;;;;;4971696;28;20202;-96
2020/12/29 14:41:01;;;;;;;4.33;2.57;;;2.20;99.90;;;;;;4971556;28;20217;-96
2020/12/29 14:43:36;;;;;;;3.43;2.63;;;2.20;99.90;;;;;;4971708;28;20206;-96
2020/12/29 14:46:11;;;;;;;3.47;2.80;;;2.20;99.90;;;;;;4971007;28;20212;-96
2020/12/29 14:48:46;;;;;;;3.53;2.90;;;2.30;99.90;;;;;;4971297;28;20199;-96
2020/12/29 14:51:23;;;;;;;3.67;2.93;;;2.40;99.90;;;;;;4970810;28;20230;-96
2020/12/29 14:54:00;;;;;;;5.00;3.20;;;2.40;99.90;;;;;;4968668;28;20267;-96
2020/12/29 14:56:42;;;;;;;3.43;2.57;;;2.40;99.90;;;;;;4970507;28;20191;-96
2020/12/29 15:02:13;;;;;;;4.27;3.10;;;2.40;99.90;;;;;;4971398;28;20191;-96
2020/12/29 15:04:45;;;;;;;3.20;2.87;;;2.50;99.90;;;;;;4965630;28;20215;-96
2020/12/29 15:07:33;;;;;;;4.67;3.07;;;2.50;99.90;;;;;;4971899;28;20280;-96
2020/12/29 15:10:20;;;;;;;3.13;2.70;;;2.60;99.90;;;;;;4971216;28;20215;-96
2020/12/29 15:13:12;;;;;;;3.90;3.10;;;2.60;99.90;;;;;;4973327;28;20198;-96
2020/12/29 15:15:44;;;;;;;5.10;3.10;;;2.60;99.90;;;;;;4974133;28;20301;-96
2020/12/29 15:18:18;;;;;;;3.73;2.90;;;2.70;99.90;;;;;;4973279;28;20256;-96
2020/12/29 15:21:14;;;;;;;3.83;3.00;;;2.60;99.90;;;;;;4975131;28;20229;-96
2020/12/29 15:24:01;;;;;;;3.23;2.60;;;2.70;99.90;;;;;;4974407;28;20199;-96
2020/12/29 15:29:35;;;;;;;4.30;2.87;;;2.70;99.90;;;;;;4952545;29;20263;-96
2020/12/29 15:32:08;;;;;;;6.53;2.97;;;2.70;99.90;;;;;;4951529;29;20298;-96
2020/12/29 15:34:44;;;;;;;4.63;2.80;;;2.70;99.90;;;;;;4954754;29;20191;-96
2020/12/29 15:37:16;;;;;;;5.80;2.80;;;2.80;99.90;;;;;;4951587;29;20195;-96
2020/12/29 15:39:47;;;;;;;4.23;3.20;;;2.80;99.90;;;;;;4947982;29;20216;-96
2020/12/29 15:42:21;;;;;;;3.53;2.83;;;2.80;99.90;;;;;;4967088;28;20235;-96
2020/12/29 15:45:03;;;;;;;3.00;2.53;;;2.80;99.90;;;;;;4956811;28;20232;-96
2020/12/29 15:47:36;;;;;;;3.70;2.90;;;2.80;99.90;;;;;;4953008;28;20228;-96
2020/12/29 15:50:25;;;;;;;2.80;2.37;;;2.80;99.90;;;;;;4952629;29;20211;-96
2020/12/29 15:53:02;;;;;;;2.53;2.33;;;2.90;99.90;;;;;;4943952;29;20267;-96
2020/12/29 15:55:56;;;;;;;2.97;2.10;;;2.90;99.90;;;;;;4948462;29;20199;-96
2020/12/29 15:58:34;;;;;;;3.60;2.40;;;2.80;99.90;;;;;;4948213;29;20199;-96
2020/12/29 16:01:14;;;;;;;3.40;2.63;;;2.90;99.90;;;;;;4952763;29;20214;-96
2020/12/29 16:03:50;;;;;;;3.23;2.37;;;2.80;99.90;;;;;;4933147;29;20239;-95
2020/12/29 16:06:21;;;;;;;3.33;2.70;;;2.80;99.90;;;;;;4940657;29;20224;-94
2020/12/29 16:08:55;;;;;;;6.63;2.70;;;2.80;99.90;;;;;;4948550;29;20212;-94
2020/12/29 16:11:47;;;;;;;6.03;2.90;;;2.80;99.90;;;;;;4948544;29;20215;-95
2020/12/29 16:14:23;;;;;;;3.77;2.60;;;2.80;99.90;;;;;;4950960;28;20264;-95
2020/12/29 16:16:56;;;;;;;3.60;2.80;;;2.80;99.90;;;;;;4950066;29;20302;-94
2020/12/29 16:19:31;;;;;;;3.13;2.57;;;2.70;99.90;;;;;;4950548;29;20285;-94
2020/12/29 16:22:02;;;;;;;3.13;2.83;;;2.80;99.90;;;;;;4950607;29;20212;-94
2020/12/29 16:24:36;;;;;;;3.73;2.87;;;2.80;99.90;;;;;;4950478;29;20219;-94
2020/12/29 16:27:06;;;;;;;3.70;2.97;;;2.70;99.90;;;;;;4950837;28;20217;-95
2020/12/29 16:29:37;;;;;;;4.50;3.03;;;2.70;99.90;;;;;;4932939;29;20221;-95
2020/12/29 16:32:17;;;;;;;3.80;2.83;;;2.70;99.90;;;;;;4951238;29;20223;-95
2020/12/29 16:34:57;;;;;;;4.30;2.87;;;2.70;99.90;;;;;;4956735;28;20193;-93
2020/12/29 16:37:31;;;;;;;5.60;3.20;;;2.60;99.90;;;;;;4956679;29;20200;-93
2020/12/29 16:40:02;;;;;;;3.93;3.20;;;2.60;99.90;;;;;;4957318;28;20283;-93
2020/12/29 16:53:09;;;;;;;3.70;2.60;;;2.50;99.90;;;;;;4964519;29;20238;-96
2020/12/29 17:03:50;;;;;;;2.87;2.00;;;2.50;99.90;;;;;;5068475;23;20249;-96
2020/12/29 17:11:52;;;;;;;2.23;1.47;;;2.60;99.90;;;;;;5802853;23;20227;-96
2020/12/29 17:14:26;;;;;;;1.40;1.10;;;2.70;99.90;;;;;;4927232;29;20232;-96
2020/12/29 17:17:02;;;;;;;2.63;1.33;;;2.70;99.90;;;;;;4930580;29;20185;-96
2020/12/29 17:19:45;;;;;;;1.70;1.20;;;2.50;99.90;;;;;;4934404;29;20220;-96
2020/12/29 17:22:26;;;;;;;2.40;1.17;;;2.50;99.90;;;;;;4929348;29;20283;-96
2020/12/29 17:24:57;;;;;;;2.53;1.10;;;2.40;99.90;;;;;;4925729;29;20205;-94
2020/12/29 17:27:38;;;;;;;1.57;1.30;;;2.40;99.90;;;;;;4913511;29;20275;-94
2020/12/29 17:30:16;;;;;;;2.10;1.30;;;2.60;99.90;;;;;;4917649;29;20250;-93
2020/12/29 17:32:47;;;;;;;2.07;1.10;;;2.70;99.90;;;;;;4921731;29;20276;-93
2020/12/29 17:35:18;;;;;;;2.03;1.33;;;2.80;99.90;;;;;;4903913;29;20212;-93
2020/12/29 17:37:49;;;;;;;2.33;1.73;;;3.00;99.90;;;;;;4899680;29;20232;-91
2020/12/29 17:40:20;;;;;;;3.07;2.33;;;3.20;99.90;;;;;;4911672;29;20237;-92
2020/12/29 17:42:52;;;;;;;3.07;2.73;;;3.30;99.90;;;;;;4923243;29;20311;-93
2020/12/29 17:45:25;;;;;;;4.83;2.50;;;3.50;99.90;;;;;;4923964;29;20462;-95
2020/12/29 17:47:55;;;;;;;3.77;2.77;;;3.60;99.90;;;;;;4925311;29;20211;-94
2020/12/29 17:50:26;;;;;;;4.37;2.67;;;3.70;99.90;;;;;;4926810;29;20260;-96
2020/12/29 17:52:57;;;;;;;6.10;2.40;;;3.80;99.90;;;;;;4932087;29;20216;-91
2020/12/29 17:55:28;;;;;;;5.00;2.60;;;3.90;99.90;;;;;;4935398;29;20224;-96
2020/12/29 17:58:00;;;;;;;6.17;2.60;;;4.00;99.90;;;;;;4924432;29;20308;-93
2020/12/29 18:00:35;;;;;;;6.80;2.97;;;4.00;99.90;;;;;;4923343;29;20299;-92
2020/12/29 18:03:06;;;;;;;3.47;2.67;;;3.90;99.90;;;;;;4921705;29;20235;-95
2020/12/29 18:05:40;;;;;;;4.87;2.87;;;3.80;99.90;;;;;;4925586;29;20619;-93
2020/12/29 18:08:11;;;;;;;2.47;2.03;;;3.90;99.90;;;;;;4920169;29;20202;-92
2020/12/29 18:10:53;;;;;;;3.50;2.40;;;3.90;99.90;;;;;;4926834;29;20253;-93
2020/12/29 18:13:25;;;;;;;2.80;2.00;;;3.90;99.90;;;;;;4920334;29;20233;-91
2020/12/29 18:16:04;;;;;;;5.07;2.30;;;3.90;99.90;;;;;;4920710;29;20715;-92
2020/12/29 18:18:36;;;;;;;8.17;2.60;;;3.90;99.90;;;;;;4918796;29;20211;-91
2020/12/29 18:21:14;;;;;;;3.27;2.47;;;4.00;99.90;;;;;;4920422;29;20301;-91